Cleveland, Ohio
Traffic Map
Current Weather Conditions
Cleveland, Ohio
Clear
Clear
26°
Feels Like: 27°
Wind Chill: 26° Ceiling: Unl
Heat Index: 27° Visibility: 10mi
Dew Point: 18° Wind: 3mph
Humidity: 62% Direction: 250° (WSW)
Pressure: 29.77in Gusts: 0mph
Raw Report DataKBKL 032253Z 25003KT 10SM CLR 26/18 A2977 RMK AO2 SLP078 T02560178
Traffic Incident Summary
Active as of:
Severity:
Category:
InformationThere was an issue retrieving the traffic information for this location. Please try a different location or try again shortly.
Advertisements
Track Severe Weather on mobile